createdAt,value
2019-03-06T00:02:08.395Z,99.90
2019-03-06T00:04:38.873Z,99.90
2019-03-06T00:07:08.829Z,99.90
2019-03-06T00:09:38.749Z,99.90
2019-03-06T00:12:08.776Z,99.90
2019-03-06T00:14:39.108Z,99.90
2019-03-06T00:17:09.354Z,99.90
2019-03-06T00:19:39.306Z,99.90
2019-03-06T00:22:09.319Z,99.90
2019-03-06T00:24:39.343Z,99.90
2019-03-06T00:27:09.348Z,99.90
2019-03-06T00:29:39.305Z,99.90
2019-03-06T00:32:09.322Z,99.90
2019-03-06T00:34:40.161Z,99.90
2019-03-06T00:37:10.235Z,99.90
2019-03-06T00:39:41.894Z,99.90
2019-03-06T00:42:11.940Z,99.90
2019-03-06T00:44:41.948Z,99.90
2019-03-06T00:47:11.981Z,99.90
2019-03-06T00:49:42.186Z,99.90
2019-03-06T00:52:12.207Z,99.90
2019-03-06T00:54:42.300Z,99.90
2019-03-06T00:57:12.399Z,99.90
2019-03-06T00:59:42.432Z,99.90
2019-03-06T01:02:12.472Z,99.90
2019-03-06T01:04:42.532Z,99.90
2019-03-06T01:07:12.581Z,99.90
2019-03-06T01:09:42.548Z,99.90
2019-03-06T01:12:14.424Z,99.90
2019-03-06T01:14:44.451Z,99.90
2019-03-06T01:17:14.516Z,99.90
2019-03-06T01:19:44.601Z,99.90
2019-03-06T01:22:15.749Z,99.90
2019-03-06T01:24:45.801Z,99.90
2019-03-06T01:27:15.993Z,99.90
2019-03-06T01:29:46.017Z,99.90
2019-03-06T01:32:16.054Z,99.90
2019-03-06T01:35:05.108Z,99.90
2019-03-06T01:37:36.817Z,99.90
2019-03-06T01:40:10.861Z,99.90
2019-03-06T01:42:42.661Z,99.90
2019-03-06T01:47:42.418Z,99.90
2019-03-06T01:50:12.672Z,99.90
2019-03-06T01:52:42.673Z,99.90
2019-03-06T01:55:13.945Z,99.90
2019-03-06T01:57:43.980Z,99.90
2019-03-06T02:00:16.941Z,99.90
2019-03-06T02:02:46.964Z,99.90
2019-03-06T02:05:17.261Z,99.90
2019-03-06T02:07:47.337Z,99.90
2019-03-06T02:10:17.544Z,99.90
2019-03-06T02:12:48.685Z,99.90
2019-03-06T02:15:19.087Z,99.90
2019-03-06T02:17:49.214Z,99.90
2019-03-06T02:25:18.581Z,99.90
2019-03-06T02:27:48.645Z,99.90
2019-03-06T02:30:21.804Z,99.90
2019-03-06T02:32:51.849Z,99.90
2019-03-06T02:35:22.765Z,99.90
2019-03-06T02:37:52.810Z,99.90
2019-03-06T02:40:22.871Z,99.90
2019-03-06T02:42:52.901Z,99.90
2019-03-06T02:45:22.961Z,99.90
2019-03-06T02:47:53.004Z,99.90
2019-03-06T02:55:22.630Z,99.90
2019-03-06T02:58:10.700Z,99.90
2019-03-06T03:00:54.410Z,99.90
2019-03-06T03:03:26.113Z,99.90
2019-03-06T03:05:57.846Z,99.90
2019-03-06T03:08:27.895Z,99.90
2019-03-06T03:10:58.218Z,99.90
2019-03-06T03:13:28.232Z,99.90
2019-03-06T03:15:58.338Z,99.90
2019-03-06T03:18:28.455Z,99.90
2019-03-06T03:20:58.762Z,99.90
2019-03-06T03:23:28.897Z,99.90
2019-03-06T03:25:58.992Z,99.90
2019-03-06T03:28:29.015Z,99.90
2019-03-06T03:30:59.059Z,99.90
2019-03-06T03:33:29.904Z,99.90
2019-03-06T03:36:00.730Z,99.90
2019-03-06T03:38:31.745Z,99.90
2019-03-06T03:46:01.425Z,99.90
2019-03-06T03:48:31.465Z,99.90
2019-03-06T03:51:01.560Z,99.90
2019-03-06T03:58:30.943Z,99.90
2019-03-06T04:01:00.918Z,99.90
2019-03-06T04:03:31.021Z,99.90
2019-03-06T04:06:01.084Z,99.90
2019-03-06T04:08:32.078Z,99.90
2019-03-06T04:13:31.801Z,99.90
2019-03-06T04:16:02.019Z,99.90
2019-03-06T04:18:32.044Z,99.90
2019-03-06T04:21:02.418Z,99.90
2019-03-06T04:23:32.462Z,99.90
2019-03-06T04:26:02.518Z,99.90
2019-03-06T04:28:32.525Z,99.90
2019-03-06T04:31:02.628Z,99.90
2019-03-06T04:33:32.851Z,99.90
2019-03-06T04:36:03.657Z,99.90
2019-03-06T04:38:33.655Z,99.90
2019-03-06T04:41:03.893Z,99.90
2019-03-06T04:43:33.967Z,99.90
2019-03-06T04:46:03.963Z,99.90
2019-03-06T04:48:33.930Z,99.90
2019-03-06T04:53:34.320Z,99.90
2019-03-06T04:56:04.336Z,99.90
2019-03-06T05:01:05.039Z,99.90
2019-03-06T05:03:35.084Z,99.90
2019-03-06T05:06:05.089Z,99.90
2019-03-06T05:11:05.931Z,99.90
2019-03-06T05:13:36.036Z,99.90
2019-03-06T05:16:06.059Z,99.90
2019-03-06T05:21:09.934Z,99.90
2019-03-06T05:23:39.969Z,99.90
2019-03-06T05:26:10.071Z,99.90
2019-03-06T05:28:40.087Z,99.90
2019-03-06T05:31:10.410Z,99.90
2019-03-06T05:33:40.332Z,99.90
2019-03-06T05:36:20.193Z,99.90
2019-03-06T05:46:20.343Z,99.90
2019-03-06T05:48:50.491Z,99.90
2019-03-06T05:51:20.492Z,99.90
2019-03-06T05:53:50.518Z,99.90
2019-03-06T05:56:20.496Z,99.90
2019-03-06T05:58:50.520Z,99.90
2019-03-06T06:01:20.440Z,99.90
2019-03-06T06:03:50.590Z,99.90
2019-03-06T06:13:49.736Z,99.90
2019-03-06T06:16:19.758Z,99.90
2019-03-06T06:26:28.225Z,99.90
2019-03-06T06:28:58.256Z,99.90
2019-03-06T06:36:28.197Z,99.90
2019-03-06T06:41:27.739Z,99.90
2019-03-06T06:48:57.264Z,99.90
2019-03-06T06:54:19.666Z,99.90
2019-03-06T06:57:12.385Z,99.90
2019-03-06T06:59:53.763Z,99.90
2019-03-06T07:03:03.815Z,99.90
2019-03-06T07:08:16.043Z,99.90
2019-03-06T07:16:32.055Z,99.90
2019-03-06T07:19:20.022Z,99.90
2019-03-06T07:21:51.646Z,99.90
2019-03-06T07:24:23.276Z,99.90
2019-03-06T07:27:20.476Z,99.90
2019-03-06T07:29:54.777Z,99.90
2019-03-06T07:32:26.395Z,99.90
2019-03-06T07:35:53.513Z,99.90
2019-03-06T07:38:24.591Z,99.90
2019-03-06T07:41:14.739Z,99.90
2019-03-06T07:43:46.420Z,99.90
2019-03-06T07:46:27.231Z,99.90
2019-03-06T07:49:15.577Z,99.90
2019-03-06T07:51:47.173Z,99.90
2019-03-06T07:54:18.856Z,99.90
2019-03-06T07:56:53.272Z,99.90
2019-03-06T07:59:23.287Z,99.90
2019-03-06T08:02:13.753Z,99.90
2019-03-06T08:04:54.311Z,99.90
2019-03-06T08:07:24.281Z,99.90
2019-03-06T08:09:56.971Z,99.90
2019-03-06T08:12:28.600Z,99.90
2019-03-06T08:15:09.685Z,99.90
2019-03-06T08:17:53.431Z,99.90
2019-03-06T08:20:40.327Z,99.90
2019-03-06T08:23:11.935Z,99.90
2019-03-06T08:25:44.178Z,99.90
2019-03-06T08:28:14.950Z,99.90
2019-03-06T08:30:49.498Z,99.90
2019-03-06T08:33:19.466Z,99.90
2019-03-06T08:35:49.488Z,99.90
2019-03-06T08:38:19.445Z,99.90
2019-03-06T08:40:50.183Z,99.90
2019-03-06T08:43:20.207Z,99.90
2019-03-06T08:45:54.699Z,99.90
2019-03-06T08:48:31.601Z,99.90
2019-03-06T08:51:12.464Z,99.90
2019-03-06T08:53:53.461Z,99.90
2019-03-06T08:56:37.367Z,99.90
2019-03-06T08:59:09.265Z,99.90
2019-03-06T09:01:59.734Z,99.90
2019-03-06T09:04:24.349Z,99.90
2019-03-06T09:06:56.186Z,99.90
2019-03-06T09:09:27.912Z,99.90
2019-03-06T09:12:08.551Z,99.90
2019-03-06T09:14:56.725Z,99.90
2019-03-06T09:17:28.383Z,99.90
2019-03-06T09:20:05.816Z,99.90
2019-03-06T09:22:46.319Z,99.90
2019-03-06T09:25:36.101Z,99.90
2019-03-06T09:28:13.909Z,99.90
2019-03-06T09:30:45.626Z,99.90
2019-03-06T09:33:17.211Z,99.90
2019-03-06T09:35:48.812Z,99.90
2019-03-06T09:38:36.954Z,99.90
2019-03-06T09:41:09.417Z,99.90
2019-03-06T09:43:56.349Z,99.90
2019-03-06T09:46:28.023Z,99.90
2019-03-06T09:52:00.548Z,99.90
2019-03-06T09:54:35.918Z,99.90
2019-03-06T09:57:19.464Z,99.90
2019-03-06T09:59:59.833Z,99.90
2019-03-06T10:02:47.649Z,99.90
2019-03-06T10:05:34.377Z,99.90
2019-03-06T10:08:18.132Z,99.90
2019-03-06T10:10:57.282Z,99.90
2019-03-06T10:13:23.210Z,99.90
2019-03-06T10:16:11.304Z,99.90
2019-03-06T10:18:52.288Z,99.90
2019-03-06T10:21:22.367Z,93.80
2019-03-06T10:23:52.682Z,96.70
2019-03-06T10:26:23.000Z,90.70
2019-03-06T10:28:53.017Z,88.10
2019-03-06T10:31:23.059Z,95.90
2019-03-06T10:33:53.096Z,97.60
2019-03-06T10:36:23.150Z,95.00
2019-03-06T10:38:53.163Z,93.90
2019-03-06T10:41:25.618Z,84.40
2019-03-06T10:43:55.621Z,70.40
2019-03-06T10:46:25.662Z,66.00
2019-03-06T10:48:55.836Z,60.80
2019-03-06T10:51:26.090Z,53.10
2019-03-06T10:53:56.099Z,47.10
2019-03-06T10:56:26.323Z,45.00
2019-03-06T10:58:56.975Z,50.50
2019-03-06T11:01:27.175Z,47.20
2019-03-06T11:04:15.118Z,46.30
2019-03-06T11:06:45.516Z,41.50
2019-03-06T11:09:15.527Z,43.20
2019-03-06T11:11:45.546Z,50.20
2019-03-06T11:14:15.590Z,48.90
2019-03-06T11:16:45.611Z,47.30
2019-03-06T11:19:16.197Z,44.50
2019-03-06T11:21:46.270Z,42.60
2019-03-06T11:24:16.234Z,38.90
2019-03-06T11:26:46.601Z,41.00
2019-03-06T11:29:16.604Z,40.60
2019-03-06T11:31:46.801Z,39.90
2019-03-06T11:34:17.502Z,39.10
2019-03-06T11:36:47.776Z,37.00
2019-03-06T11:39:17.967Z,35.60
2019-03-06T11:41:48.851Z,35.30
2019-03-06T11:44:18.876Z,36.00
2019-03-06T11:46:48.945Z,37.60
2019-03-06T11:49:18.982Z,38.40
2019-03-06T11:51:49.168Z,41.60
2019-03-06T11:54:20.991Z,41.90
2019-03-06T11:56:50.944Z,38.00
2019-03-06T11:59:21.368Z,35.00
2019-03-06T12:01:51.453Z,33.90
2019-03-06T12:04:21.484Z,39.70
2019-03-06T12:06:51.545Z,43.30
2019-03-06T12:09:26.910Z,45.90
2019-03-06T12:12:00.124Z,46.70
2019-03-06T12:14:30.615Z,45.50
2019-03-06T12:17:00.903Z,56.30
2019-03-06T12:19:30.970Z,45.40
2019-03-06T12:22:01.318Z,45.50
2019-03-06T12:24:31.406Z,41.20
2019-03-06T12:27:01.414Z,35.80
2019-03-06T12:29:31.473Z,32.60
2019-03-06T12:32:01.623Z,31.70
2019-03-06T12:34:31.679Z,31.60
2019-03-06T12:37:01.685Z,33.80
2019-03-06T12:39:32.077Z,31.10
2019-03-06T12:42:02.830Z,30.40
2019-03-06T12:44:34.088Z,32.20
2019-03-06T12:47:04.262Z,35.10
2019-03-06T12:49:34.332Z,35.50
2019-03-06T12:52:04.475Z,33.10
2019-03-06T12:54:34.485Z,31.90
2019-03-06T12:57:04.850Z,31.70
2019-03-06T12:59:34.777Z,30.20
2019-03-06T13:02:04.724Z,29.30
2019-03-06T13:04:34.690Z,33.20
2019-03-06T13:07:04.714Z,43.80
2019-03-06T13:09:34.792Z,32.80
2019-03-06T13:14:33.990Z,29.20
2019-03-06T13:17:03.692Z,30.80
2019-03-06T13:22:11.074Z,28.80
2019-03-06T13:24:38.671Z,27.90
2019-03-06T13:27:08.580Z,28.10
2019-03-06T13:29:38.300Z,27.70
2019-03-06T13:32:11.798Z,26.90
2019-03-06T13:34:39.685Z,27.30
2019-03-06T13:37:09.379Z,26.70
2019-03-06T13:39:41.119Z,26.10
2019-03-06T13:42:12.619Z,26.10
2019-03-06T13:44:42.398Z,26.70
2019-03-06T13:47:14.114Z,28.00
2019-03-06T13:49:43.925Z,28.10
2019-03-06T13:52:13.999Z,28.20
2019-03-06T13:54:43.696Z,28.30
2019-03-06T13:57:14.081Z,27.80
2019-03-06T13:59:43.844Z,28.00
2019-03-06T14:02:14.679Z,27.40
2019-03-06T14:04:44.423Z,27.40
2019-03-06T14:07:14.434Z,26.60
2019-03-06T14:09:44.144Z,27.50
2019-03-06T14:12:14.128Z,26.60
2019-03-06T14:14:43.905Z,26.50
2019-03-06T14:17:13.608Z,26.40
2019-03-06T14:19:43.340Z,25.70
2019-03-06T14:22:12.964Z,25.40
2019-03-06T14:24:42.729Z,26.70
2019-03-06T14:27:12.664Z,27.00
2019-03-06T14:29:42.356Z,26.80
2019-03-06T14:32:14.930Z,27.20
2019-03-06T14:34:43.581Z,27.10
2019-03-06T14:37:13.341Z,26.90
2019-03-06T14:39:43.035Z,27.00
2019-03-06T14:42:13.580Z,27.10
2019-03-06T14:44:43.307Z,26.40
2019-03-06T14:47:14.643Z,26.70
2019-03-06T14:49:44.350Z,27.00
2019-03-06T14:52:14.078Z,26.80
2019-03-06T14:54:44.348Z,27.80
2019-03-06T14:57:14.237Z,28.70
2019-03-06T14:59:43.945Z,30.00
2019-03-06T15:02:14.007Z,30.80
2019-03-06T15:04:43.952Z,31.70
2019-03-06T15:07:13.644Z,32.10
2019-03-06T15:09:43.421Z,31.00
2019-03-06T15:12:13.283Z,29.90
2019-03-06T15:14:42.980Z,29.30
2019-03-06T15:17:12.903Z,29.00
2019-03-06T15:19:42.606Z,29.00
2019-03-06T15:24:41.999Z,30.10
2019-03-06T15:27:11.909Z,30.20
2019-03-06T15:29:42.122Z,30.20
2019-03-06T15:32:12.111Z,30.70
2019-03-06T15:34:42.253Z,34.70
2019-03-06T15:42:13.596Z,34.10
2019-03-06T15:44:43.595Z,42.70
2019-03-06T15:47:13.703Z,52.70
2019-03-06T15:52:13.286Z,38.50
2019-03-06T15:54:43.298Z,40.30
2019-03-06T15:57:15.666Z,40.00
2019-03-06T15:59:45.673Z,40.90
2019-03-06T16:02:15.955Z,41.80
2019-03-06T16:04:46.030Z,43.00
2019-03-06T16:07:17.470Z,43.80
2019-03-06T16:09:48.617Z,51.20
2019-03-06T16:14:49.440Z,72.20
2019-03-06T16:17:21.191Z,58.70
2019-03-06T16:19:51.111Z,54.60
2019-03-06T16:22:22.095Z,62.90
2019-03-06T16:24:52.463Z,60.80
2019-03-06T16:27:22.528Z,47.90
2019-03-06T16:29:52.540Z,53.20
2019-03-06T16:32:22.484Z,49.30
2019-03-06T16:34:52.623Z,57.00
2019-03-06T16:37:22.690Z,50.60
2019-03-06T16:39:52.702Z,59.30
2019-03-06T16:42:23.506Z,51.70
2019-03-06T16:44:53.524Z,59.60
2019-03-06T16:47:23.943Z,53.20
2019-03-06T16:49:54.016Z,53.50
2019-03-06T16:52:24.062Z,54.10
2019-03-06T16:54:54.168Z,72.50
2019-03-06T16:57:24.223Z,62.50
2019-03-06T17:02:24.152Z,73.00
2019-03-06T17:04:54.328Z,57.10
2019-03-06T17:07:24.478Z,66.50
2019-03-06T17:09:54.502Z,64.50
2019-03-06T17:12:24.593Z,67.80
2019-03-06T17:14:54.604Z,68.40
2019-03-06T17:17:24.728Z,62.30
2019-03-06T17:19:54.927Z,67.10
2019-03-06T17:22:25.263Z,65.00
2019-03-06T17:27:25.310Z,66.60
2019-03-06T17:29:55.507Z,76.70
2019-03-06T17:32:25.520Z,80.40
2019-03-06T17:34:55.511Z,71.70
2019-03-06T17:37:25.770Z,73.30
2019-03-06T17:39:56.034Z,74.40
2019-03-06T17:42:26.254Z,75.50
2019-03-06T17:44:57.125Z,78.50
2019-03-06T17:47:27.246Z,79.80
2019-03-06T17:49:57.258Z,80.80
2019-03-06T17:54:58.353Z,92.20
2019-03-06T17:57:28.386Z,96.00
2019-03-06T17:59:58.451Z,98.90
2019-03-06T18:04:59.390Z,99.90
2019-03-06T18:07:29.702Z,99.90
2019-03-06T18:09:59.734Z,99.90
2019-03-06T18:12:29.778Z,97.40
2019-03-06T18:19:59.323Z,99.90
2019-03-06T18:27:28.606Z,99.90
2019-03-06T18:29:58.590Z,99.90
2019-03-06T18:32:28.615Z,99.90
2019-03-06T18:34:58.620Z,99.90
2019-03-06T18:37:28.556Z,97.60
2019-03-06T18:39:58.531Z,99.90
2019-03-06T18:42:28.608Z,99.90
2019-03-06T18:44:58.600Z,99.90
2019-03-06T18:49:58.615Z,99.90
2019-03-06T18:52:28.635Z,99.90
2019-03-06T18:54:58.784Z,99.90
2019-03-06T18:57:28.907Z,99.90
2019-03-06T18:59:59.066Z,99.90
2019-03-06T19:02:29.198Z,99.90
2019-03-06T19:04:59.411Z,99.90
2019-03-06T19:07:29.453Z,99.90
2019-03-06T19:09:59.465Z,99.90
2019-03-06T19:12:30.602Z,99.90
2019-03-06T19:15:01.663Z,99.90
2019-03-06T19:17:33.524Z,99.90
2019-03-06T19:20:03.781Z,99.90
2019-03-06T19:22:33.824Z,99.90
2019-03-06T19:25:06.235Z,99.90
2019-03-06T19:27:36.533Z,99.90
2019-03-06T19:30:15.248Z,99.90
2019-03-06T19:32:46.654Z,99.90
2019-03-06T19:42:47.917Z,99.90
2019-03-06T19:45:20.299Z,99.90
2019-03-06T19:47:51.433Z,99.90
2019-03-06T19:50:25.411Z,99.90
2019-03-06T19:52:56.869Z,99.90
2019-03-06T19:58:05.355Z,99.90
2019-03-06T20:00:36.031Z,99.90
2019-03-06T20:05:41.141Z,99.90
2019-03-06T20:08:15.245Z,99.90
2019-03-06T20:10:45.291Z,99.90
2019-03-06T20:15:45.053Z,99.90
2019-03-06T20:18:15.064Z,99.90
2019-03-06T20:23:15.875Z,99.90
2019-03-06T20:25:46.183Z,99.90
2019-03-06T20:28:16.616Z,99.90
2019-03-06T20:30:46.724Z,99.90
2019-03-06T20:33:16.742Z,99.90
2019-03-06T20:35:46.824Z,99.90
2019-03-06T20:38:16.900Z,99.90
2019-03-06T20:40:49.124Z,99.90
2019-03-06T20:43:19.262Z,99.90
2019-03-06T20:45:49.296Z,99.90
2019-03-06T20:48:19.724Z,99.90
2019-03-06T20:50:49.764Z,99.90
2019-03-06T20:53:19.820Z,99.90
2019-03-06T20:55:49.877Z,99.90
2019-03-06T20:58:20.233Z,99.90
2019-03-06T21:00:51.346Z,99.90
2019-03-06T21:03:22.059Z,99.90
2019-03-06T21:05:52.521Z,99.90
2019-03-06T21:10:52.774Z,99.90
2019-03-06T21:13:22.799Z,99.90
2019-03-06T21:15:52.852Z,99.90
2019-03-06T21:18:22.885Z,99.90
2019-03-06T21:20:52.928Z,99.90
2019-03-06T21:23:22.954Z,99.90
2019-03-06T21:25:53.295Z,99.90
2019-03-06T21:28:23.368Z,99.90
2019-03-06T21:30:53.491Z,99.90
2019-03-06T21:33:23.522Z,99.90
2019-03-06T21:35:53.924Z,99.90
2019-03-06T21:38:25.095Z,99.90
2019-03-06T21:40:55.349Z,99.90
2019-03-06T21:43:25.365Z,99.90
2019-03-06T21:45:55.399Z,99.90
2019-03-06T21:48:25.574Z,99.90
2019-03-06T21:50:56.129Z,99.90
2019-03-06T21:53:26.168Z,99.90
2019-03-06T21:55:56.240Z,99.90
2019-03-06T21:58:26.281Z,99.90
2019-03-06T22:00:56.338Z,99.90
2019-03-06T22:03:26.358Z,99.90
2019-03-06T22:05:56.523Z,99.90
2019-03-06T22:08:26.534Z,99.90
2019-03-06T22:10:57.118Z,99.90
2019-03-06T22:13:27.136Z,99.90
2019-03-06T22:15:57.712Z,99.90
2019-03-06T22:18:27.836Z,99.90
2019-03-06T22:25:59.242Z,99.90
2019-03-06T22:28:29.311Z,99.90
2019-03-06T22:30:59.632Z,99.90
2019-03-06T22:35:59.260Z,99.90
2019-03-06T22:38:29.295Z,99.90
2019-03-06T22:40:59.363Z,99.90
2019-03-06T22:43:29.379Z,99.90
2019-03-06T22:45:59.711Z,99.90
2019-03-06T22:50:59.231Z,99.90
2019-03-06T22:53:29.727Z,99.90
2019-03-06T22:55:59.768Z,99.90
2019-03-06T22:58:29.806Z,99.90
2019-03-06T23:01:04.003Z,99.90
2019-03-06T23:03:35.120Z,99.90
2019-03-06T23:06:06.016Z,99.90
2019-03-06T23:08:36.086Z,99.90
2019-03-06T23:16:07.383Z,99.90
2019-03-06T23:21:07.042Z,99.90
2019-03-06T23:28:36.321Z,99.90
2019-03-06T23:31:06.491Z,99.90
2019-03-06T23:33:36.839Z,99.90
2019-03-06T23:36:06.873Z,99.90
2019-03-06T23:38:36.992Z,99.90
2019-03-06T23:41:07.100Z,99.90
2019-03-06T23:43:37.103Z,99.90
2019-03-06T23:46:07.117Z,99.90
2019-03-06T23:48:37.323Z,99.90
2019-03-06T23:51:09.525Z,99.90
2019-03-06T23:53:50.348Z,99.90
2019-03-06T23:56:20.446Z,99.90
